Terminal Aerodrome Forecast
Issued by NWS Huntsville, AL

Home | Current Version | Previous Version | Text Only | Print | Product List | Glossary On
Versions: 1 2 3 4 5 6 7 8 9 10 11 12 13 14
000
FTUS44 KHUN 301120
TAFHSV
TAF
KHSV 301120Z 3012/3112 VRB03KT P6SM SKC
     FM301500 08005KT P6SM SCT040
     FM310000 VRB03KT P6SM SKC
      TEMPO 3110/3112 5SM BR=

USA.gov is the U.S. government's official web portal to all federal, state and local government web resources and services.